sensor_id;sensor_type;location;lat;lon;timestamp;P1;durP1;ratioP1;P2;durP2;ratioP2
52734;SDS011;38631;47.572;10.704;2023-08-20T00:01:31;7.78;;;4.07;;
52734;SDS011;38631;47.572;10.704;2023-08-20T00:03:56;5.03;;;3.65;;
52734;SDS011;38631;47.572;10.704;2023-08-20T00:06:22;6.63;;;3.67;;
52734;SDS011;38631;47.572;10.704;2023-08-20T00:08:48;4.53;;;3.90;;
52734;SDS011;38631;47.572;10.704;2023-08-20T00:11:14;5.72;;;3.67;;
52734;SDS011;38631;47.572;10.704;2023-08-20T00:13:40;9.10;;;4.10;;
52734;SDS011;38631;47.572;10.704;2023-08-20T00:16:06;5.82;;;3.63;;
52734;SDS011;38631;47.572;10.704;2023-08-20T00:18:31;5.45;;;3.92;;
52734;SDS011;38631;47.572;10.704;2023-08-20T00:20:57;5.57;;;3.78;;
52734;SDS011;38631;47.572;10.704;2023-08-20T00:23:23;6.50;;;3.85;;
52734;SDS011;38631;47.572;10.704;2023-08-20T00:25:49;5.90;;;3.30;;
52734;SDS011;38631;47.572;10.704;2023-08-20T00:28:15;6.97;;;4.25;;
52734;SDS011;38631;47.572;10.704;2023-08-20T00:30:40;6.95;;;3.40;;
52734;SDS011;38631;47.572;10.704;2023-08-20T00:33:05;13.98;;;4.57;;
52734;SDS011;38631;47.572;10.704;2023-08-20T00:35:31;6.75;;;4.03;;
52734;SDS011;38631;47.572;10.704;2023-08-20T00:37:57;6.18;;;3.33;;
52734;SDS011;38631;47.572;10.704;2023-08-20T00:40:22;3.50;;;3.15;;
52734;SDS011;38631;47.572;10.704;2023-08-20T00:42:48;5.38;;;3.85;;
52734;SDS011;38631;47.572;10.704;2023-08-20T00:45:14;6.20;;;3.53;;
52734;SDS011;38631;47.572;10.704;2023-08-20T00:47:41;8.60;;;3.55;;
52734;SDS011;38631;47.572;10.704;2023-08-20T00:50:06;5.35;;;3.63;;
52734;SDS011;38631;47.572;10.704;2023-08-20T00:52:33;5.82;;;3.17;;
52734;SDS011;38631;47.572;10.704;2023-08-20T00:54:59;8.07;;;3.85;;
52734;SDS011;38631;47.572;10.704;2023-08-20T00:57:25;6.63;;;3.33;;
52734;SDS011;38631;47.572;10.704;2023-08-20T00:59:51;5.45;;;3.58;;
52734;SDS011;38631;47.572;10.704;2023-08-20T01:02:19;6.47;;;3.95;;
52734;SDS011;38631;47.572;10.704;2023-08-20T01:04:45;6.82;;;3.40;;
52734;SDS011;38631;47.572;10.704;2023-08-20T01:07:29;5.93;;;3.72;;
52734;SDS011;38631;47.572;10.704;2023-08-20T01:12:31;5.22;;;3.22;;
52734;SDS011;38631;47.572;10.704;2023-08-20T01:14:59;6.45;;;3.25;;
52734;SDS011;38631;47.572;10.704;2023-08-20T01:17:24;4.25;;;3.40;;
52734;SDS011;38631;47.572;10.704;2023-08-20T01:19:50;4.85;;;3.47;;
52734;SDS011;38631;47.572;10.704;2023-08-20T01:23:22;10.25;;;3.75;;
52734;SDS011;38631;47.572;10.704;2023-08-20T01:30:52;7.32;;;3.30;;
52734;SDS011;38631;47.572;10.704;2023-08-20T01:33:19;5.88;;;3.72;;
52734;SDS011;38631;47.572;10.704;2023-08-20T01:35:44;5.40;;;3.78;;
52734;SDS011;38631;47.572;10.704;2023-08-20T01:38:10;6.20;;;3.42;;
52734;SDS011;38631;47.572;10.704;2023-08-20T01:40:35;5.85;;;4.05;;
52734;SDS011;38631;47.572;10.704;2023-08-20T01:43:01;5.20;;;3.88;;
52734;SDS011;38631;47.572;10.704;2023-08-20T01:45:26;6.72;;;3.88;;
52734;SDS011;38631;47.572;10.704;2023-08-20T01:47:51;8.70;;;3.90;;
52734;SDS011;38631;47.572;10.704;2023-08-20T01:50:17;5.50;;;4.00;;
52734;SDS011;38631;47.572;10.704;2023-08-20T01:52:42;5.40;;;3.65;;
52734;SDS011;38631;47.572;10.704;2023-08-20T01:55:08;5.97;;;3.85;;
52734;SDS011;38631;47.572;10.704;2023-08-20T01:57:33;6.82;;;3.92;;
52734;SDS011;38631;47.572;10.704;2023-08-20T01:59:59;6.50;;;3.70;;
52734;SDS011;38631;47.572;10.704;2023-08-20T02:02:24;6.35;;;3.80;;
52734;SDS011;38631;47.572;10.704;2023-08-20T02:04:50;4.15;;;3.70;;
52734;SDS011;38631;47.572;10.704;2023-08-20T02:07:15;6.85;;;3.88;;
52734;SDS011;38631;47.572;10.704;2023-08-20T02:09:41;6.28;;;3.55;;
52734;SDS011;38631;47.572;10.704;2023-08-20T02:12:06;8.25;;;4.10;;
52734;SDS011;38631;47.572;10.704;2023-08-20T02:14:32;6.50;;;4.20;;
52734;SDS011;38631;47.572;10.704;2023-08-20T02:17:01;8.07;;;3.63;;
52734;SDS011;38631;47.572;10.704;2023-08-20T02:19:27;6.35;;;4.57;;
52734;SDS011;38631;47.572;10.704;2023-08-20T02:21:53;5.32;;;3.95;;
52734;SDS011;38631;47.572;10.704;2023-08-20T02:24:18;12.80;;;4.13;;
52734;SDS011;38631;47.572;10.704;2023-08-20T02:26:44;5.85;;;3.40;;
52734;SDS011;38631;47.572;10.704;2023-08-20T02:29:09;7.60;;;3.97;;
52734;SDS011;38631;47.572;10.704;2023-08-20T02:31:35;4.47;;;3.53;;
52734;SDS011;38631;47.572;10.704;2023-08-20T02:34:00;6.18;;;3.40;;
52734;SDS011;38631;47.572;10.704;2023-08-20T02:36:26;8.93;;;3.92;;
52734;SDS011;38631;47.572;10.704;2023-08-20T02:38:51;5.38;;;3.90;;
52734;SDS011;38631;47.572;10.704;2023-08-20T02:41:16;4.75;;;3.38;;
52734;SDS011;38631;47.572;10.704;2023-08-20T02:43:42;4.88;;;3.55;;
52734;SDS011;38631;47.572;10.704;2023-08-20T02:46:07;6.15;;;3.63;;
52734;SDS011;38631;47.572;10.704;2023-08-20T02:48:33;5.90;;;3.70;;
52734;SDS011;38631;47.572;10.704;2023-08-20T02:50:58;6.45;;;3.97;;
52734;SDS011;38631;47.572;10.704;2023-08-20T02:53:24;6.45;;;3.78;;
52734;SDS011;38631;47.572;10.704;2023-08-20T02:55:49;6.35;;;4.35;;
52734;SDS011;38631;47.572;10.704;2023-08-20T02:58:14;7.75;;;4.10;;
52734;SDS011;38631;47.572;10.704;2023-08-20T03:00:40;4.63;;;3.83;;
52734;SDS011;38631;47.572;10.704;2023-08-20T03:03:07;5.82;;;3.63;;
52734;SDS011;38631;47.572;10.704;2023-08-20T03:05:33;6.43;;;3.88;;
52734;SDS011;38631;47.572;10.704;2023-08-20T03:07:59;5.68;;;3.42;;
52734;SDS011;38631;47.572;10.704;2023-08-20T03:10:25;5.68;;;3.92;;
52734;SDS011;38631;47.572;10.704;2023-08-20T03:12:55;10.57;;;3.55;;
52734;SDS011;38631;47.572;10.704;2023-08-20T03:15:20;5.32;;;3.67;;
52734;SDS011;38631;47.572;10.704;2023-08-20T03:17:45;7.40;;;4.15;;
52734;SDS011;38631;47.572;10.704;2023-08-20T03:20:11;5.70;;;3.75;;
52734;SDS011;38631;47.572;10.704;2023-08-20T03:22:37;5.75;;;3.58;;
52734;SDS011;38631;47.572;10.704;2023-08-20T03:25:03;7.35;;;3.90;;
52734;SDS011;38631;47.572;10.704;2023-08-20T03:27:29;8.13;;;3.97;;
52734;SDS011;38631;47.572;10.704;2023-08-20T03:29:54;7.22;;;3.85;;
52734;SDS011;38631;47.572;10.704;2023-08-20T03:32:20;5.95;;;4.15;;
52734;SDS011;38631;47.572;10.704;2023-08-20T03:34:45;4.43;;;3.80;;
52734;SDS011;38631;47.572;10.704;2023-08-20T03:37:11;4.55;;;3.42;;
52734;SDS011;38631;47.572;10.704;2023-08-20T03:39:37;6.05;;;3.75;;
52734;SDS011;38631;47.572;10.704;2023-08-20T03:42:02;6.72;;;4.25;;
52734;SDS011;38631;47.572;10.704;2023-08-20T03:44:28;5.97;;;3.45;;
52734;SDS011;38631;47.572;10.704;2023-08-20T03:46:54;8.88;;;4.28;;
52734;SDS011;38631;47.572;10.704;2023-08-20T03:49:20;4.80;;;3.53;;
52734;SDS011;38631;47.572;10.704;2023-08-20T03:51:45;4.45;;;3.42;;
52734;SDS011;38631;47.572;10.704;2023-08-20T03:54:11;7.13;;;3.70;;
52734;SDS011;38631;47.572;10.704;2023-08-20T03:56:36;5.15;;;3.80;;
52734;SDS011;38631;47.572;10.704;2023-08-20T03:59:01;6.88;;;4.00;;
52734;SDS011;38631;47.572;10.704;2023-08-20T04:01:27;5.32;;;3.63;;
52734;SDS011;38631;47.572;10.704;2023-08-20T04:03:52;5.20;;;3.47;;
52734;SDS011;38631;47.572;10.704;2023-08-20T04:06:18;7.18;;;4.47;;
52734;SDS011;38631;47.572;10.704;2023-08-20T04:08:43;4.63;;;3.80;;
52734;SDS011;38631;47.572;10.704;2023-08-20T04:11:09;6.00;;;3.97;;
52734;SDS011;38631;47.572;10.704;2023-08-20T04:13:34;5.18;;;3.95;;
52734;SDS011;38631;47.572;10.704;2023-08-20T04:16:00;5.45;;;3.85;;
52734;SDS011;38631;47.572;10.704;2023-08-20T04:18:25;17.17;;;4.85;;
52734;SDS011;38631;47.572;10.704;2023-08-20T04:20:51;5.93;;;4.20;;
52734;SDS011;38631;47.572;10.704;2023-08-20T04:23:17;5.50;;;3.70;;
52734;SDS011;38631;47.572;10.704;2023-08-20T04:25:43;6.30;;;4.22;;
52734;SDS011;38631;47.572;10.704;2023-08-20T04:28:10;7.10;;;4.22;;
52734;SDS011;38631;47.572;10.704;2023-08-20T04:30:35;5.82;;;3.75;;
52734;SDS011;38631;47.572;10.704;2023-08-20T04:33:01;6.65;;;4.25;;
52734;SDS011;38631;47.572;10.704;2023-08-20T04:35:27;4.65;;;3.80;;
52734;SDS011;38631;47.572;10.704;2023-08-20T04:37:52;6.43;;;3.53;;
52734;SDS011;38631;47.572;10.704;2023-08-20T04:40:17;7.72;;;4.30;;
52734;SDS011;38631;47.572;10.704;2023-08-20T04:42:43;5.57;;;4.22;;
52734;SDS011;38631;47.572;10.704;2023-08-20T04:45:08;6.32;;;3.50;;
52734;SDS011;38631;47.572;10.704;2023-08-20T04:47:35;5.72;;;3.80;;
52734;SDS011;38631;47.572;10.704;2023-08-20T04:50:00;6.63;;;4.13;;
52734;SDS011;38631;47.572;10.704;2023-08-20T04:52:26;6.85;;;3.47;;
52734;SDS011;38631;47.572;10.704;2023-08-20T04:54:51;5.25;;;3.75;;
52734;SDS011;38631;47.572;10.704;2023-08-20T04:57:17;5.28;;;3.88;;
52734;SDS011;38631;47.572;10.704;2023-08-20T04:59:42;8.55;;;3.65;;
52734;SDS011;38631;47.572;10.704;2023-08-20T05:02:11;5.50;;;4.15;;
52734;SDS011;38631;47.572;10.704;2023-08-20T05:04:37;7.78;;;3.80;;
52734;SDS011;38631;47.572;10.704;2023-08-20T05:07:03;5.07;;;3.58;;
52734;SDS011;38631;47.572;10.704;2023-08-20T05:09:29;3.58;;;3.20;;
52734;SDS011;38631;47.572;10.704;2023-08-20T05:11:54;8.32;;;3.83;;
52734;SDS011;38631;47.572;10.704;2023-08-20T05:14:19;5.70;;;3.80;;
52734;SDS011;38631;47.572;10.704;2023-08-20T05:16:45;7.53;;;3.47;;
52734;SDS011;38631;47.572;10.704;2023-08-20T05:19:10;5.93;;;4.00;;
52734;SDS011;38631;47.572;10.704;2023-08-20T05:21:35;6.13;;;3.78;;
52734;SDS011;38631;47.572;10.704;2023-08-20T05:24:01;8.02;;;3.92;;
52734;SDS011;38631;47.572;10.704;2023-08-20T05:26:26;4.57;;;3.75;;
52734;SDS011;38631;47.572;10.704;2023-08-20T05:28:52;5.85;;;3.70;;
52734;SDS011;38631;47.572;10.704;2023-08-20T05:31:17;4.07;;;3.40;;
52734;SDS011;38631;47.572;10.704;2023-08-20T05:33:42;5.95;;;4.00;;
52734;SDS011;38631;47.572;10.704;2023-08-20T05:36:08;7.43;;;3.65;;
52734;SDS011;38631;47.572;10.704;2023-08-20T05:38:33;6.25;;;3.42;;
52734;SDS011;38631;47.572;10.704;2023-08-20T05:40:58;7.20;;;3.78;;
52734;SDS011;38631;47.572;10.704;2023-08-20T05:43:24;4.60;;;3.85;;
52734;SDS011;38631;47.572;10.704;2023-08-20T05:45:49;5.70;;;3.90;;
52734;SDS011;38631;47.572;10.704;2023-08-20T05:48:14;5.40;;;3.95;;
52734;SDS011;38631;47.572;10.704;2023-08-20T05:50:40;6.60;;;3.75;;
52734;SDS011;38631;47.572;10.704;2023-08-20T05:53:05;7.53;;;3.67;;
52734;SDS011;38631;47.572;10.704;2023-08-20T05:55:31;4.55;;;3.60;;
52734;SDS011;38631;47.572;10.704;2023-08-20T05:57:56;8.98;;;3.88;;
52734;SDS011;38631;47.572;10.704;2023-08-20T06:00:21;6.75;;;4.07;;
52734;SDS011;38631;47.572;10.704;2023-08-20T06:02:47;5.82;;;3.65;;
52734;SDS011;38631;47.572;10.704;2023-08-20T06:05:12;5.47;;;3.42;;
52734;SDS011;38631;47.572;10.704;2023-08-20T06:07:38;9.38;;;4.18;;
52734;SDS011;38631;47.572;10.704;2023-08-20T06:10:03;7.25;;;3.80;;
52734;SDS011;38631;47.572;10.704;2023-08-20T06:12:30;7.20;;;3.95;;
52734;SDS011;38631;47.572;10.704;2023-08-20T06:14:55;8.00;;;3.60;;
52734;SDS011;38631;47.572;10.704;2023-08-20T06:17:21;6.25;;;3.28;;
52734;SDS011;38631;47.572;10.704;2023-08-20T06:19:46;6.88;;;3.38;;
52734;SDS011;38631;47.572;10.704;2023-08-20T06:22:12;6.53;;;3.65;;
52734;SDS011;38631;47.572;10.704;2023-08-20T06:24:37;4.13;;;3.50;;
52734;SDS011;38631;47.572;10.704;2023-08-20T06:27:02;5.78;;;3.63;;
52734;SDS011;38631;47.572;10.704;2023-08-20T06:29:28;7.05;;;3.67;;
52734;SDS011;38631;47.572;10.704;2023-08-20T06:31:54;5.53;;;3.65;;
52734;SDS011;38631;47.572;10.704;2023-08-20T06:34:19;5.43;;;3.42;;
52734;SDS011;38631;47.572;10.704;2023-08-20T06:36:44;5.22;;;3.70;;
52734;SDS011;38631;47.572;10.704;2023-08-20T06:39:10;5.82;;;3.75;;
52734;SDS011;38631;47.572;10.704;2023-08-20T06:41:36;5.93;;;3.90;;
52734;SDS011;38631;47.572;10.704;2023-08-20T06:44:01;6.95;;;3.72;;
52734;SDS011;38631;47.572;10.704;2023-08-20T06:46:27;5.85;;;3.60;;
52734;SDS011;38631;47.572;10.704;2023-08-20T06:48:53;5.90;;;3.00;;
52734;SDS011;38631;47.572;10.704;2023-08-20T06:51:19;6.63;;;4.07;;
52734;SDS011;38631;47.572;10.704;2023-08-20T06:53:46;4.93;;;3.72;;
52734;SDS011;38631;47.572;10.704;2023-08-20T06:56:12;6.30;;;3.80;;
52734;SDS011;38631;47.572;10.704;2023-08-20T06:58:38;5.20;;;3.63;;
52734;SDS011;38631;47.572;10.704;2023-08-20T07:01:04;5.25;;;3.75;;
52734;SDS011;38631;47.572;10.704;2023-08-20T07:03:33;7.15;;;4.13;;
52734;SDS011;38631;47.572;10.704;2023-08-20T07:05:59;6.97;;;3.92;;
52734;SDS011;38631;47.572;10.704;2023-08-20T07:08:25;5.93;;;4.03;;
52734;SDS011;38631;47.572;10.704;2023-08-20T07:10:50;5.88;;;3.70;;
52734;SDS011;38631;47.572;10.704;2023-08-20T07:13:15;5.93;;;3.67;;
52734;SDS011;38631;47.572;10.704;2023-08-20T07:15:41;7.55;;;3.83;;
52734;SDS011;38631;47.572;10.704;2023-08-20T07:18:06;6.38;;;3.92;;
52734;SDS011;38631;47.572;10.704;2023-08-20T07:20:31;5.45;;;3.72;;
52734;SDS011;38631;47.572;10.704;2023-08-20T07:22:57;7.07;;;3.80;;
52734;SDS011;38631;47.572;10.704;2023-08-20T07:25:22;8.85;;;3.45;;
52734;SDS011;38631;47.572;10.704;2023-08-20T07:27:48;5.57;;;2.92;;
52734;SDS011;38631;47.572;10.704;2023-08-20T07:30:13;6.65;;;4.07;;
52734;SDS011;38631;47.572;10.704;2023-08-20T07:32:38;4.50;;;3.38;;
52734;SDS011;38631;47.572;10.704;2023-08-20T07:35:04;5.30;;;3.53;;
52734;SDS011;38631;47.572;10.704;2023-08-20T07:37:30;5.95;;;3.08;;
52734;SDS011;38631;47.572;10.704;2023-08-20T07:39:55;6.25;;;3.35;;
52734;SDS011;38631;47.572;10.704;2023-08-20T07:42:20;4.88;;;3.15;;
52734;SDS011;38631;47.572;10.704;2023-08-20T07:44:46;5.47;;;3.75;;
52734;SDS011;38631;47.572;10.704;2023-08-20T07:47:11;6.28;;;3.60;;
52734;SDS011;38631;47.572;10.704;2023-08-20T07:49:37;3.95;;;3.13;;
52734;SDS011;38631;47.572;10.704;2023-08-20T07:52:03;8.02;;;3.40;;
52734;SDS011;38631;47.572;10.704;2023-08-20T07:54:28;7.75;;;4.43;;
52734;SDS011;38631;47.572;10.704;2023-08-20T07:56:54;4.55;;;3.20;;
52734;SDS011;38631;47.572;10.704;2023-08-20T07:59:19;4.35;;;3.35;;
52734;SDS011;38631;47.572;10.704;2023-08-20T08:01:44;5.28;;;3.38;;
52734;SDS011;38631;47.572;10.704;2023-08-20T08:04:10;5.90;;;3.30;;
52734;SDS011;38631;47.572;10.704;2023-08-20T08:06:35;4.15;;;3.35;;
52734;SDS011;38631;47.572;10.704;2023-08-20T08:09:20;4.97;;;3.53;;
52734;SDS011;38631;47.572;10.704;2023-08-20T08:11:52;6.95;;;4.30;;
52734;SDS011;38631;47.572;10.704;2023-08-20T08:14:18;4.55;;;3.25;;
52734;SDS011;38631;47.572;10.704;2023-08-20T08:16:45;5.00;;;3.65;;
52734;SDS011;38631;47.572;10.704;2023-08-20T08:19:11;4.60;;;3.70;;
52734;SDS011;38631;47.572;10.704;2023-08-20T08:21:37;6.80;;;3.92;;
52734;SDS011;38631;47.572;10.704;2023-08-20T08:24:02;6.85;;;3.50;;
52734;SDS011;38631;47.572;10.704;2023-08-20T08:26:28;5.38;;;3.40;;
52734;SDS011;38631;47.572;10.704;2023-08-20T08:28:54;6.22;;;3.70;;
52734;SDS011;38631;47.572;10.704;2023-08-20T08:31:19;7.07;;;3.22;;
52734;SDS011;38631;47.572;10.704;2023-08-20T08:33:45;7.65;;;3.15;;
52734;SDS011;38631;47.572;10.704;2023-08-20T08:36:10;5.55;;;3.40;;
52734;SDS011;38631;47.572;10.704;2023-08-20T08:38:36;5.20;;;3.42;;
52734;SDS011;38631;47.572;10.704;2023-08-20T08:41:02;3.83;;;3.35;;
52734;SDS011;38631;47.572;10.704;2023-08-20T08:43:28;7.75;;;3.33;;
52734;SDS011;38631;47.572;10.704;2023-08-20T08:45:56;4.57;;;3.25;;
52734;SDS011;38631;47.572;10.704;2023-08-20T08:48:22;10.43;;;3.65;;
52734;SDS011;38631;47.572;10.704;2023-08-20T08:50:49;4.97;;;2.67;;
52734;SDS011;38631;47.572;10.704;2023-08-20T08:53:16;7.78;;;3.28;;
52734;SDS011;38631;47.572;10.704;2023-08-20T08:55:42;6.40;;;3.35;;
52734;SDS011;38631;47.572;10.704;2023-08-20T08:58:08;7.68;;;4.03;;
52734;SDS011;38631;47.572;10.704;2023-08-20T09:00:33;5.45;;;2.78;;
52734;SDS011;38631;47.572;10.704;2023-08-20T09:02:58;7.05;;;2.75;;
52734;SDS011;38631;47.572;10.704;2023-08-20T09:05:24;5.15;;;2.92;;
52734;SDS011;38631;47.572;10.704;2023-08-20T09:07:56;3.90;;;2.78;;
52734;SDS011;38631;47.572;10.704;2023-08-20T09:10:25;6.18;;;2.80;;
52734;SDS011;38631;47.572;10.704;2023-08-20T09:12:51;5.70;;;2.60;;
52734;SDS011;38631;47.572;10.704;2023-08-20T09:15:19;6.30;;;2.73;;
52734;SDS011;38631;47.572;10.704;2023-08-20T09:17:46;6.47;;;3.00;;
52734;SDS011;38631;47.572;10.704;2023-08-20T09:20:11;8.70;;;2.95;;
52734;SDS011;38631;47.572;10.704;2023-08-20T09:22:37;5.78;;;2.88;;
52734;SDS011;38631;47.572;10.704;2023-08-20T09:25:03;10.07;;;3.58;;
52734;SDS011;38631;47.572;10.704;2023-08-20T09:27:28;7.25;;;3.90;;
52734;SDS011;38631;47.572;10.704;2023-08-20T09:29:54;4.30;;;3.00;;
52734;SDS011;38631;47.572;10.704;2023-08-20T09:32:23;6.07;;;3.30;;
52734;SDS011;38631;47.572;10.704;2023-08-20T09:34:54;7.45;;;2.90;;
52734;SDS011;38631;47.572;10.704;2023-08-20T09:37:21;5.85;;;3.20;;
52734;SDS011;38631;47.572;10.704;2023-08-20T09:39:48;5.43;;;2.67;;
52734;SDS011;38631;47.572;10.704;2023-08-20T09:42:14;5.85;;;2.97;;
52734;SDS011;38631;47.572;10.704;2023-08-20T09:44:40;8.18;;;3.22;;
52734;SDS011;38631;47.572;10.704;2023-08-20T09:47:08;6.60;;;3.00;;
52734;SDS011;38631;47.572;10.704;2023-08-20T09:49:39;4.30;;;2.78;;
52734;SDS011;38631;47.572;10.704;2023-08-20T09:52:09;12.15;;;3.25;;
52734;SDS011;38631;47.572;10.704;2023-08-20T09:54:40;6.20;;;2.80;;
52734;SDS011;38631;47.572;10.704;2023-08-20T09:57:12;6.55;;;2.75;;
52734;SDS011;38631;47.572;10.704;2023-08-20T09:59:46;7.07;;;2.70;;
52734;SDS011;38631;47.572;10.704;2023-08-20T10:02:14;5.68;;;3.30;;
52734;SDS011;38631;47.572;10.704;2023-08-20T10:04:40;6.13;;;2.92;;
52734;SDS011;38631;47.572;10.704;2023-08-20T10:07:07;5.00;;;3.00;;
52734;SDS011;38631;47.572;10.704;2023-08-20T10:09:34;4.70;;;3.20;;
52734;SDS011;38631;47.572;10.704;2023-08-20T10:12:00;9.52;;;3.67;;
52734;SDS011;38631;47.572;10.704;2023-08-20T10:14:26;6.75;;;3.20;;
52734;SDS011;38631;47.572;10.704;2023-08-20T10:16:52;4.28;;;3.55;;
52734;SDS011;38631;47.572;10.704;2023-08-20T10:19:18;6.68;;;3.60;;
52734;SDS011;38631;47.572;10.704;2023-08-20T10:21:44;6.28;;;3.90;;
52734;SDS011;38631;47.572;10.704;2023-08-20T10:26:46;7.75;;;3.65;;
52734;SDS011;38631;47.572;10.704;2023-08-20T10:32:08;4.72;;;3.40;;
52734;SDS011;38631;47.572;10.704;2023-08-20T10:34:38;3.65;;;2.95;;
52734;SDS011;38631;47.572;10.704;2023-08-20T10:37:14;6.40;;;3.45;;
52734;SDS011;38631;47.572;10.704;2023-08-20T10:39:40;6.32;;;3.28;;
52734;SDS011;38631;47.572;10.704;2023-08-20T10:42:09;7.33;;;4.03;;
52734;SDS011;38631;47.572;10.704;2023-08-20T10:47:23;5.80;;;3.65;;
52734;SDS011;38631;47.572;10.704;2023-08-20T10:49:51;6.28;;;3.72;;
52734;SDS011;38631;47.572;10.704;2023-08-20T10:52:18;7.28;;;3.80;;
52734;SDS011;38631;47.572;10.704;2023-08-20T10:54:44;3.90;;;3.33;;
52734;SDS011;38631;47.572;10.704;2023-08-20T10:57:10;6.38;;;4.00;;
52734;SDS011;38631;47.572;10.704;2023-08-20T10:59:35;6.32;;;3.45;;
52734;SDS011;38631;47.572;10.704;2023-08-20T11:04:35;5.68;;;3.83;;
52734;SDS011;38631;47.572;10.704;2023-08-20T11:07:00;5.20;;;3.15;;
52734;SDS011;38631;47.572;10.704;2023-08-20T11:09:27;8.50;;;4.13;;
52734;SDS011;38631;47.572;10.704;2023-08-20T11:11:53;5.90;;;3.53;;
52734;SDS011;38631;47.572;10.704;2023-08-20T11:14:20;6.90;;;3.58;;
52734;SDS011;38631;47.572;10.704;2023-08-20T11:16:46;9.88;;;3.22;;
52734;SDS011;38631;47.572;10.704;2023-08-20T11:19:13;5.50;;;3.55;;
52734;SDS011;38631;47.572;10.704;2023-08-20T11:21:41;6.38;;;3.20;;
52734;SDS011;38631;47.572;10.704;2023-08-20T11:24:07;4.80;;;3.70;;
52734;SDS011;38631;47.572;10.704;2023-08-20T11:26:34;9.32;;;3.80;;
52734;SDS011;38631;47.572;10.704;2023-08-20T11:29:00;7.32;;;3.17;;
52734;SDS011;38631;47.572;10.704;2023-08-20T11:31:27;5.60;;;3.35;;
52734;SDS011;38631;47.572;10.704;2023-08-20T11:33:53;6.32;;;3.47;;
52734;SDS011;38631;47.572;10.704;2023-08-20T11:36:19;6.95;;;3.72;;
52734;SDS011;38631;47.572;10.704;2023-08-20T11:38:51;5.53;;;3.30;;
52734;SDS011;38631;47.572;10.704;2023-08-20T11:41:18;6.70;;;2.85;;
52734;SDS011;38631;47.572;10.704;2023-08-20T11:43:46;10.13;;;3.88;;
52734;SDS011;38631;47.572;10.704;2023-08-20T11:46:17;5.78;;;3.60;;
52734;SDS011;38631;47.572;10.704;2023-08-20T11:51:30;6.80;;;3.33;;
52734;SDS011;38631;47.572;10.704;2023-08-20T11:54:00;7.68;;;3.53;;
52734;SDS011;38631;47.572;10.704;2023-08-20T11:56:26;4.30;;;2.90;;
52734;SDS011;38631;47.572;10.704;2023-08-20T11:58:52;4.88;;;3.00;;
52734;SDS011;38631;47.572;10.704;2023-08-20T12:01:18;6.93;;;3.20;;
52734;SDS011;38631;47.572;10.704;2023-08-20T12:03:44;6.63;;;3.22;;
52734;SDS011;38631;47.572;10.704;2023-08-20T12:06:20;8.15;;;3.38;;
52734;SDS011;38631;47.572;10.704;2023-08-20T12:08:47;4.65;;;3.35;;
52734;SDS011;38631;47.572;10.704;2023-08-20T12:11:13;7.63;;;3.47;;
52734;SDS011;38631;47.572;10.704;2023-08-20T12:13:38;6.78;;;3.33;;
52734;SDS011;38631;47.572;10.704;2023-08-20T12:16:04;6.32;;;3.08;;
52734;SDS011;38631;47.572;10.704;2023-08-20T12:18:29;5.50;;;2.95;;
52734;SDS011;38631;47.572;10.704;2023-08-20T12:20:55;9.13;;;3.05;;
52734;SDS011;38631;47.572;10.704;2023-08-20T12:23:20;5.55;;;3.22;;
52734;SDS011;38631;47.572;10.704;2023-08-20T12:25:49;7.30;;;3.03;;
52734;SDS011;38631;47.572;10.704;2023-08-20T12:28:15;5.85;;;2.83;;
52734;SDS011;38631;47.572;10.704;2023-08-20T12:30:41;7.13;;;2.88;;
52734;SDS011;38631;47.572;10.704;2023-08-20T12:33:07;8.02;;;3.80;;
52734;SDS011;38631;47.572;10.704;2023-08-20T12:35:32;5.03;;;2.67;;
52734;SDS011;38631;47.572;10.704;2023-08-20T12:37:57;4.72;;;2.35;;
52734;SDS011;38631;47.572;10.704;2023-08-20T12:40:23;4.50;;;2.60;;
52734;SDS011;38631;47.572;10.704;2023-08-20T12:42:48;5.78;;;2.75;;
52734;SDS011;38631;47.572;10.704;2023-08-20T12:45:14;6.25;;;2.80;;
52734;SDS011;38631;47.572;10.704;2023-08-20T12:47:39;5.85;;;2.53;;
52734;SDS011;38631;47.572;10.704;2023-08-20T12:50:05;4.93;;;2.60;;
52734;SDS011;38631;47.572;10.704;2023-08-20T12:52:32;6.03;;;3.00;;
52734;SDS011;38631;47.572;10.704;2023-08-20T12:54:58;6.15;;;2.65;;
52734;SDS011;38631;47.572;10.704;2023-08-20T12:57:23;6.07;;;2.25;;
52734;SDS011;38631;47.572;10.704;2023-08-20T12:59:49;3.67;;;2.40;;
52734;SDS011;38631;47.572;10.704;2023-08-20T13:02:15;4.75;;;2.30;;
52734;SDS011;38631;47.572;10.704;2023-08-20T13:04:40;8.05;;;2.10;;
52734;SDS011;38631;47.572;10.704;2023-08-20T13:07:06;4.38;;;2.33;;
52734;SDS011;38631;47.572;10.704;2023-08-20T13:09:32;5.40;;;2.20;;
52734;SDS011;38631;47.572;10.704;2023-08-20T13:11:58;4.88;;;2.45;;
52734;SDS011;38631;47.572;10.704;2023-08-20T13:14:26;4.10;;;2.05;;
52734;SDS011;38631;47.572;10.704;2023-08-20T13:16:52;5.22;;;2.40;;
52734;SDS011;38631;47.572;10.704;2023-08-20T13:19:17;5.78;;;2.15;;
52734;SDS011;38631;47.572;10.704;2023-08-20T13:21:43;5.00;;;2.10;;
52734;SDS011;38631;47.572;10.704;2023-08-20T13:24:08;5.20;;;2.30;;
52734;SDS011;38631;47.572;10.704;2023-08-20T13:26:43;4.47;;;2.45;;
52734;SDS011;38631;47.572;10.704;2023-08-20T13:29:09;4.40;;;2.72;;
52734;SDS011;38631;47.572;10.704;2023-08-20T13:31:35;5.63;;;2.55;;
52734;SDS011;38631;47.572;10.704;2023-08-20T13:34:01;5.10;;;2.70;;
52734;SDS011;38631;47.572;10.704;2023-08-20T13:36:26;6.53;;;2.80;;
52734;SDS011;38631;47.572;10.704;2023-08-20T13:38:52;3.92;;;2.88;;
52734;SDS011;38631;47.572;10.704;2023-08-20T13:41:18;3.85;;;2.60;;
52734;SDS011;38631;47.572;10.704;2023-08-20T13:43:43;4.50;;;2.30;;
52734;SDS011;38631;47.572;10.704;2023-08-20T13:46:08;4.05;;;2.60;;
52734;SDS011;38631;47.572;10.704;2023-08-20T13:48:34;5.25;;;2.53;;
52734;SDS011;38631;47.572;10.704;2023-08-20T13:50:59;4.07;;;1.90;;
52734;SDS011;38631;47.572;10.704;2023-08-20T13:53:25;7.82;;;2.65;;
52734;SDS011;38631;47.572;10.704;2023-08-20T13:55:50;3.38;;;2.40;;
52734;SDS011;38631;47.572;10.704;2023-08-20T13:58:16;4.43;;;2.05;;
52734;SDS011;38631;47.572;10.704;2023-08-20T14:00:44;5.10;;;2.53;;
52734;SDS011;38631;47.572;10.704;2023-08-20T14:03:10;5.93;;;2.10;;
52734;SDS011;38631;47.572;10.704;2023-08-20T14:05:35;5.30;;;2.55;;
52734;SDS011;38631;47.572;10.704;2023-08-20T14:08:00;6.47;;;2.30;;
52734;SDS011;38631;47.572;10.704;2023-08-20T14:10:26;3.15;;;2.25;;
52734;SDS011;38631;47.572;10.704;2023-08-20T14:12:51;3.60;;;1.88;;
52734;SDS011;38631;47.572;10.704;2023-08-20T14:15:17;4.03;;;2.42;;
52734;SDS011;38631;47.572;10.704;2023-08-20T14:17:42;2.97;;;1.92;;
52734;SDS011;38631;47.572;10.704;2023-08-20T14:20:08;3.72;;;1.50;;
52734;SDS011;38631;47.572;10.704;2023-08-20T14:22:36;2.70;;;2.00;;
52734;SDS011;38631;47.572;10.704;2023-08-20T14:25:10;5.70;;;1.88;;
52734;SDS011;38631;47.572;10.704;2023-08-20T14:27:35;3.72;;;2.00;;
52734;SDS011;38631;47.572;10.704;2023-08-20T14:30:01;3.13;;;1.88;;
52734;SDS011;38631;47.572;10.704;2023-08-20T14:32:27;3.30;;;2.00;;
52734;SDS011;38631;47.572;10.704;2023-08-20T14:34:53;4.47;;;2.10;;
52734;SDS011;38631;47.572;10.704;2023-08-20T14:37:18;4.20;;;2.03;;
52734;SDS011;38631;47.572;10.704;2023-08-20T14:39:43;2.38;;;1.77;;
52734;SDS011;38631;47.572;10.704;2023-08-20T14:42:09;3.15;;;2.03;;
52734;SDS011;38631;47.572;10.704;2023-08-20T14:44:34;3.78;;;2.10;;
52734;SDS011;38631;47.572;10.704;2023-08-20T14:47:00;3.03;;;1.95;;
52734;SDS011;38631;47.572;10.704;2023-08-20T14:49:25;2.65;;;1.70;;